HSNUMN VTBD-VTUU
Flight info
| Callsign | HSNUMN |
|---|---|
| Flight time | 1h 32m |
| Altitude | 7000 |
| Route | ROBKA3C ROBKA A1 VENPO VENPO1C |
| Aircraft | C208/L-SDFGR/C |
Departure
| Time | 2026-05-05 06:43 |
|---|---|
| Airport | Don Mueang International Airport (VTBD) |
Arrival
| Time | 2026-05-05 08:16 |
|---|---|
| Airport | Ubon Ratchathani Airport (VTUU) |
| Time | Latitude | Longitude | Altitude | Speed | Heading |
|---|---|---|---|---|---|
| 2026-05-05 06:30 | 13.92176 | 100.61648 | 16 ft | 0 kts | 118° |
| 2026-05-05 06:40 | 13.92173 | 100.61654 | 16 ft | 3 kts | 118° |
| 2026-05-05 06:40 | 13.92186 | 100.61635 | 16 ft | 11 kts | 289° |
| 2026-05-05 06:40 | 13.92215 | 100.61594 | 15 ft | 9 kts | 359° |
| 2026-05-05 06:41 | 13.92288 | 100.61635 | 15 ft | 14 kts | 26° |
| 2026-05-05 06:41 | 13.92366 | 100.61629 | 15 ft | 17 kts | 297° |
| 2026-05-05 06:41 | 13.92351 | 100.61497 | 13 ft | 22 kts | 207° |
| 2026-05-05 06:41 | 13.92155 | 100.61387 | 14 ft | 46 kts | 210° |
| 2026-05-05 06:42 | 13.91802 | 100.61189 | 16 ft | 69 kts | 208° |
| 2026-05-05 06:42 | 13.91302 | 100.60910 | 16 ft | 93 kts | 207° |
| 2026-05-05 06:42 | 13.90709 | 100.60583 | 141 ft | 97 kts | 207° |
| 2026-05-05 06:42 | 13.90114 | 100.60256 | 289 ft | 98 kts | 206° |
| 2026-05-05 06:43 | 13.89502 | 100.59923 | 379 ft | 101 kts | 207° |
| 2026-05-05 06:43 | 13.88865 | 100.59609 | 484 ft | 104 kts | 204° |
| 2026-05-05 06:43 | 13.88162 | 100.59307 | 620 ft | 112 kts | 201° |
| 2026-05-05 06:43 | 13.87469 | 100.58911 | 829 ft | 118 kts | 212° |
| 2026-05-05 06:44 | 13.86762 | 100.58451 | 1045 ft | 124 kts | 210° |
| 2026-05-05 06:44 | 13.86001 | 100.57998 | 1295 ft | 128 kts | 207° |
| 2026-05-05 06:44 | 13.85211 | 100.57547 | 1554 ft | 131 kts | 211° |
| 2026-05-05 06:44 | 13.84693 | 100.56788 | 1798 ft | 136 kts | 258° |
| 2026-05-05 06:45 | 13.84623 | 100.55822 | 2067 ft | 136 kts | 265° |
| 2026-05-05 06:45 | 13.84548 | 100.54854 | 2333 ft | 136 kts | 265° |
| 2026-05-05 06:45 | 13.84472 | 100.53886 | 2597 ft | 135 kts | 265° |
| 2026-05-05 06:45 | 13.84159 | 100.53001 | 2853 ft | 135 kts | 222° |
| 2026-05-05 06:46 | 13.83296 | 100.52776 | 3100 ft | 133 kts | 163° |
| 2026-05-05 06:46 | 13.82650 | 100.53405 | 3347 ft | 132 kts | 114° |
| 2026-05-05 06:46 | 13.82271 | 100.54266 | 3591 ft | 132 kts | 114° |
| 2026-05-05 06:46 | 13.81883 | 100.55125 | 3834 ft | 133 kts | 114° |
| 2026-05-05 06:47 | 13.81502 | 100.55990 | 4078 ft | 133 kts | 113° |
| 2026-05-05 06:47 | 13.81125 | 100.56862 | 4324 ft | 134 kts | 112° |
| 2026-05-05 06:47 | 13.80753 | 100.57745 | 4551 ft | 135 kts | 112° |
| 2026-05-05 06:47 | 13.80383 | 100.58641 | 4768 ft | 137 kts | 112° |
| 2026-05-05 06:48 | 13.80016 | 100.59547 | 4985 ft | 137 kts | 112° |
| 2026-05-05 06:48 | 13.79656 | 100.60458 | 5195 ft | 137 kts | 111° |
| 2026-05-05 06:48 | 13.79302 | 100.61370 | 5415 ft | 137 kts | 111° |
| 2026-05-05 06:48 | 13.78956 | 100.62288 | 5629 ft | 138 kts | 110° |
| 2026-05-05 06:49 | 13.78615 | 100.63211 | 5849 ft | 138 kts | 110° |
| 2026-05-05 06:49 | 13.78281 | 100.64142 | 6067 ft | 139 kts | 110° |
| 2026-05-05 06:49 | 13.77954 | 100.65075 | 6285 ft | 139 kts | 109° |
| 2026-05-05 06:49 | 13.77639 | 100.65997 | 6485 ft | 138 kts | 109° |
| 2026-05-05 06:50 | 13.77325 | 100.66942 | 6697 ft | 137 kts | 108° |
| 2026-05-05 06:50 | 13.77030 | 100.67861 | 6902 ft | 137 kts | 108° |
| 2026-05-05 06:50 | 13.76732 | 100.68817 | 6997 ft | 146 kts | 107° |
| 2026-05-05 06:50 | 13.76417 | 100.69853 | 7005 ft | 156 kts | 107° |
| 2026-05-05 06:51 | 13.76097 | 100.70944 | 7011 ft | 162 kts | 106° |
| 2026-05-05 06:51 | 13.75780 | 100.72069 | 7009 ft | 165 kts | 105° |
| 2026-05-05 06:51 | 13.75466 | 100.73233 | 7009 ft | 172 kts | 105° |
| 2026-05-05 06:51 | 13.75154 | 100.74440 | 7008 ft | 177 kts | 104° |
| 2026-05-05 06:52 | 13.74854 | 100.75678 | 7007 ft | 180 kts | 103° |
| 2026-05-05 06:52 | 13.74565 | 100.76931 | 7010 ft | 181 kts | 103° |
| 2026-05-05 06:52 | 13.74290 | 100.78198 | 7007 ft | 182 kts | 102° |
| 2026-05-05 06:52 | 13.74033 | 100.79472 | 7010 ft | 182 kts | 101° |
| 2026-05-05 06:53 | 13.73794 | 100.80749 | 7007 ft | 182 kts | 101° |
| 2026-05-05 06:53 | 13.73572 | 100.82029 | 7008 ft | 182 kts | 99° |
| 2026-05-05 06:53 | 13.73369 | 100.83314 | 7008 ft | 182 kts | 98° |
| 2026-05-05 06:53 | 13.73184 | 100.84607 | 7009 ft | 183 kts | 98° |
| 2026-05-05 06:54 | 13.73019 | 100.85904 | 7007 ft | 183 kts | 97° |
| 2026-05-05 06:54 | 13.72875 | 100.87217 | 7007 ft | 187 kts | 96° |
| 2026-05-05 06:54 | 13.72751 | 100.88559 | 7009 ft | 189 kts | 95° |
| 2026-05-05 06:54 | 13.72650 | 100.89908 | 7008 ft | 189 kts | 94° |
| 2026-05-05 06:55 | 13.72572 | 100.91255 | 7008 ft | 188 kts | 93° |
| 2026-05-05 06:55 | 13.72517 | 100.92600 | 7008 ft | 189 kts | 92° |
| 2026-05-05 06:55 | 13.72488 | 100.93949 | 7006 ft | 189 kts | 91° |
| 2026-05-05 06:55 | 13.72483 | 100.95299 | 7006 ft | 189 kts | 90° |
| 2026-05-05 06:56 | 13.72505 | 100.96652 | 7006 ft | 190 kts | 89° |
| 2026-05-05 06:56 | 13.72556 | 100.98005 | 7007 ft | 189 kts | 87° |
| 2026-05-05 06:56 | 13.72635 | 100.99357 | 7007 ft | 189 kts | 86° |
| 2026-05-05 06:56 | 13.72742 | 101.00704 | 7006 ft | 189 kts | 85° |
| 2026-05-05 06:57 | 13.72880 | 101.02049 | 7006 ft | 189 kts | 83° |
| 2026-05-05 06:57 | 13.73050 | 101.03392 | 7006 ft | 190 kts | 82° |
| 2026-05-05 06:57 | 13.73254 | 101.04736 | 7006 ft | 190 kts | 81° |
| 2026-05-05 06:57 | 13.73493 | 101.06074 | 7006 ft | 191 kts | 79° |
| 2026-05-05 06:58 | 13.73771 | 101.07410 | 7006 ft | 191 kts | 77° |
| 2026-05-05 06:58 | 13.74092 | 101.08738 | 7005 ft | 192 kts | 76° |
| 2026-05-05 06:58 | 13.74458 | 101.10055 | 7005 ft | 191 kts | 73° |
| 2026-05-05 06:58 | 13.74867 | 101.11356 | 7007 ft | 192 kts | 72° |
| 2026-05-05 06:59 | 13.75322 | 101.12647 | 7007 ft | 192 kts | 70° |
| 2026-05-05 06:59 | 13.75819 | 101.13924 | 7006 ft | 192 kts | 68° |
| 2026-05-05 06:59 | 13.76358 | 101.15165 | 7006 ft | 193 kts | 63° |
| 2026-05-05 06:59 | 13.77176 | 101.16252 | 7006 ft | 193 kts | 47° |
| 2026-05-05 07:00 | 13.78097 | 101.17260 | 7002 ft | 193 kts | 50° |
| 2026-05-05 07:00 | 13.78951 | 101.18323 | 7001 ft | 193 kts | 52° |
| 2026-05-05 07:00 | 13.79787 | 101.19399 | 7001 ft | 192 kts | 52° |
| 2026-05-05 07:00 | 13.80627 | 101.20473 | 7002 ft | 193 kts | 52° |
| 2026-05-05 07:01 | 13.81469 | 101.21546 | 7004 ft | 193 kts | 52° |
| 2026-05-05 07:01 | 13.82308 | 101.22615 | 7002 ft | 191 kts | 52° |
| 2026-05-05 07:01 | 13.83141 | 101.23678 | 7004 ft | 190 kts | 52° |
| 2026-05-05 07:01 | 13.83972 | 101.24737 | 6999 ft | 190 kts | 52° |
| 2026-05-05 07:02 | 13.84799 | 101.25791 | 7002 ft | 189 kts | 52° |
| 2026-05-05 07:02 | 13.85623 | 101.26843 | 7003 ft | 189 kts | 52° |
| 2026-05-05 07:02 | 13.86450 | 101.27897 | 6997 ft | 189 kts | 52° |
| 2026-05-05 07:02 | 13.87279 | 101.28952 | 6997 ft | 189 kts | 52° |
| 2026-05-05 07:03 | 13.88105 | 101.30005 | 6997 ft | 189 kts | 52° |
| 2026-05-05 07:03 | 13.88930 | 101.31058 | 6996 ft | 189 kts | 52° |
| 2026-05-05 07:03 | 13.89753 | 101.32110 | 6998 ft | 189 kts | 52° |
| 2026-05-05 07:03 | 13.90580 | 101.33163 | 6995 ft | 189 kts | 52° |
| 2026-05-05 07:04 | 13.91405 | 101.34214 | 6999 ft | 189 kts | 52° |
| 2026-05-05 07:04 | 13.92228 | 101.35266 | 6996 ft | 189 kts | 52° |
| 2026-05-05 07:04 | 13.93056 | 101.36322 | 6996 ft | 190 kts | 52° |
| 2026-05-05 07:04 | 13.93884 | 101.37378 | 7000 ft | 190 kts | 52° |
| 2026-05-05 07:05 | 13.94712 | 101.38434 | 6994 ft | 189 kts | 53° |
| 2026-05-05 07:05 | 13.95536 | 101.39486 | 6999 ft | 188 kts | 52° |
| 2026-05-05 07:05 | 13.96356 | 101.40532 | 6998 ft | 187 kts | 51° |
| 2026-05-05 07:05 | 13.97173 | 101.41575 | 7004 ft | 186 kts | 52° |
| 2026-05-05 07:06 | 13.97987 | 101.42615 | 7000 ft | 186 kts | 52° |
| 2026-05-05 07:06 | 13.98800 | 101.43654 | 7002 ft | 187 kts | 51° |
| 2026-05-05 07:06 | 13.99614 | 101.44694 | 6998 ft | 187 kts | 52° |
| 2026-05-05 07:06 | 14.00430 | 101.45737 | 7004 ft | 187 kts | 52° |
| 2026-05-05 07:07 | 14.01235 | 101.46764 | 7003 ft | 186 kts | 52° |
| 2026-05-05 07:07 | 14.02046 | 101.47800 | 7008 ft | 185 kts | 52° |
| 2026-05-05 07:07 | 14.02856 | 101.48836 | 7006 ft | 186 kts | 52° |
| 2026-05-05 07:07 | 14.03667 | 101.49874 | 7004 ft | 186 kts | 51° |
| 2026-05-05 07:08 | 14.04482 | 101.50915 | 7004 ft | 187 kts | 51° |
| 2026-05-05 07:08 | 14.05297 | 101.51954 | 7001 ft | 186 kts | 52° |
| 2026-05-05 07:08 | 14.06105 | 101.52990 | 7003 ft | 185 kts | 52° |
| 2026-05-05 07:08 | 14.06914 | 101.54025 | 7001 ft | 186 kts | 51° |
| 2026-05-05 07:09 | 14.07726 | 101.55062 | 7003 ft | 186 kts | 52° |
| 2026-05-05 07:09 | 14.08536 | 101.56098 | 7021 ft | 185 kts | 52° |
| 2026-05-05 07:09 | 14.09346 | 101.57134 | 7024 ft | 186 kts | 51° |
| 2026-05-05 07:09 | 14.10158 | 101.58172 | 7020 ft | 186 kts | 51° |
| 2026-05-05 07:10 | 14.10971 | 101.59214 | 7023 ft | 187 kts | 52° |
| 2026-05-05 07:10 | 14.11786 | 101.60255 | 7023 ft | 186 kts | 52° |
| 2026-05-05 07:10 | 14.12597 | 101.61292 | 7025 ft | 185 kts | 52° |
| 2026-05-05 07:10 | 14.13405 | 101.62328 | 7024 ft | 186 kts | 51° |
| 2026-05-05 07:11 | 14.14215 | 101.63365 | 7020 ft | 186 kts | 51° |
| 2026-05-05 07:11 | 14.15022 | 101.64399 | 7024 ft | 185 kts | 52° |
| 2026-05-05 07:11 | 14.15831 | 101.65434 | 7023 ft | 185 kts | 52° |
| 2026-05-05 07:11 | 14.16639 | 101.66469 | 7024 ft | 186 kts | 52° |
| 2026-05-05 07:12 | 14.17450 | 101.67508 | 7027 ft | 187 kts | 51° |
| 2026-05-05 07:12 | 14.18266 | 101.68554 | 7031 ft | 188 kts | 51° |
| 2026-05-05 07:12 | 14.19088 | 101.69606 | 7025 ft | 189 kts | 51° |
| 2026-05-05 07:12 | 14.19912 | 101.70662 | 7025 ft | 189 kts | 51° |
| 2026-05-05 07:13 | 14.20738 | 101.71720 | 7025 ft | 189 kts | 51° |
| 2026-05-05 07:13 | 14.21564 | 101.72779 | 7041 ft | 190 kts | 51° |
| 2026-05-05 07:13 | 14.22390 | 101.73837 | 7040 ft | 189 kts | 51° |
| 2026-05-05 07:13 | 14.23204 | 101.74880 | 7045 ft | 189 kts | 51° |
| 2026-05-05 07:14 | 14.24029 | 101.75938 | 7038 ft | 189 kts | 51° |
| 2026-05-05 07:14 | 14.24853 | 101.76994 | 7037 ft | 189 kts | 51° |
| 2026-05-05 07:14 | 14.25680 | 101.78055 | 7037 ft | 190 kts | 51° |
| 2026-05-05 07:14 | 14.26506 | 101.79116 | 7041 ft | 190 kts | 51° |
| 2026-05-05 07:15 | 14.27333 | 101.80175 | 7034 ft | 190 kts | 51° |
| 2026-05-05 07:15 | 14.28161 | 101.81237 | 7030 ft | 190 kts | 51° |
| 2026-05-05 07:15 | 14.28991 | 101.82303 | 7031 ft | 191 kts | 52° |
| 2026-05-05 07:15 | 14.29823 | 101.83371 | 7034 ft | 191 kts | 52° |
| 2026-05-05 07:16 | 14.30658 | 101.84443 | 7039 ft | 192 kts | 52° |
| 2026-05-05 07:16 | 14.31495 | 101.85516 | 7039 ft | 192 kts | 52° |
| 2026-05-05 07:16 | 14.32331 | 101.86589 | 7036 ft | 192 kts | 52° |
| 2026-05-05 07:16 | 14.33169 | 101.87665 | 7036 ft | 193 kts | 52° |
| 2026-05-05 07:17 | 14.33955 | 101.88779 | 7031 ft | 192 kts | 63° |
| 2026-05-05 07:17 | 14.34402 | 101.90067 | 7037 ft | 191 kts | 72° |
| 2026-05-05 07:17 | 14.34840 | 101.91359 | 7041 ft | 191 kts | 71° |
| 2026-05-05 07:17 | 14.35286 | 101.92646 | 7042 ft | 191 kts | 71° |
| 2026-05-05 07:18 | 14.35725 | 101.93932 | 7043 ft | 191 kts | 71° |
| 2026-05-05 07:18 | 14.36166 | 101.95226 | 7042 ft | 191 kts | 71° |
| 2026-05-05 07:18 | 14.36608 | 101.96520 | 7043 ft | 191 kts | 71° |
| 2026-05-05 07:18 | 14.37045 | 101.97801 | 7040 ft | 192 kts | 71° |
| 2026-05-05 07:19 | 14.37488 | 101.99101 | 7041 ft | 192 kts | 71° |
| 2026-05-05 07:19 | 14.37929 | 102.00395 | 7037 ft | 191 kts | 71° |
| 2026-05-05 07:19 | 14.38368 | 102.01686 | 7038 ft | 190 kts | 71° |
| 2026-05-05 07:19 | 14.38808 | 102.02972 | 7039 ft | 190 kts | 71° |
| 2026-05-05 07:20 | 14.39247 | 102.04262 | 7037 ft | 191 kts | 71° |
| 2026-05-05 07:20 | 14.39537 | 102.05115 | 7040 ft | 190 kts | 71° |
| 2026-05-05 07:20 | 14.39976 | 102.06400 | 7041 ft | 190 kts | 71° |
| 2026-05-05 07:20 | 14.40413 | 102.07685 | 7041 ft | 189 kts | 71° |
| 2026-05-05 07:21 | 14.40848 | 102.08964 | 7036 ft | 189 kts | 71° |
| 2026-05-05 07:21 | 14.41283 | 102.10239 | 7041 ft | 188 kts | 71° |
| 2026-05-05 07:21 | 14.41715 | 102.11513 | 7038 ft | 188 kts | 71° |
| 2026-05-05 07:21 | 14.42149 | 102.12789 | 7039 ft | 189 kts | 71° |
| 2026-05-05 07:22 | 14.42584 | 102.14066 | 7037 ft | 189 kts | 71° |
| 2026-05-05 07:22 | 14.43019 | 102.15342 | 7037 ft | 189 kts | 71° |
| 2026-05-05 07:22 | 14.43452 | 102.16619 | 7034 ft | 188 kts | 71° |
| 2026-05-05 07:22 | 14.43885 | 102.17892 | 7032 ft | 188 kts | 71° |
| 2026-05-05 07:23 | 14.44319 | 102.19167 | 7034 ft | 188 kts | 71° |
| 2026-05-05 07:23 | 14.44753 | 102.20444 | 7039 ft | 189 kts | 71° |
| 2026-05-05 07:23 | 14.45186 | 102.21721 | 7039 ft | 189 kts | 71° |
| 2026-05-05 07:23 | 14.45621 | 102.22998 | 7041 ft | 189 kts | 71° |
| 2026-05-05 07:24 | 14.46054 | 102.24276 | 7041 ft | 189 kts | 71° |
| 2026-05-05 07:24 | 14.46488 | 102.25552 | 7039 ft | 188 kts | 71° |
| 2026-05-05 07:24 | 14.46921 | 102.26827 | 7031 ft | 188 kts | 71° |
| 2026-05-05 07:24 | 14.47353 | 102.28102 | 7034 ft | 188 kts | 71° |
| 2026-05-05 07:25 | 14.47786 | 102.29378 | 7034 ft | 189 kts | 71° |
| 2026-05-05 07:25 | 14.48220 | 102.30655 | 7029 ft | 189 kts | 71° |
| 2026-05-05 07:25 | 14.48652 | 102.31929 | 7031 ft | 188 kts | 71° |
| 2026-05-05 07:25 | 14.49085 | 102.33205 | 7031 ft | 188 kts | 71° |
| 2026-05-05 07:26 | 14.49517 | 102.34481 | 7031 ft | 189 kts | 71° |
| 2026-05-05 07:26 | 14.49950 | 102.35758 | 7029 ft | 188 kts | 71° |
| 2026-05-05 07:26 | 14.50383 | 102.37033 | 7030 ft | 188 kts | 71° |
| 2026-05-05 07:26 | 14.50814 | 102.38305 | 7032 ft | 188 kts | 71° |
| 2026-05-05 07:27 | 14.51249 | 102.39588 | 7032 ft | 190 kts | 71° |
| 2026-05-05 07:27 | 14.51687 | 102.40878 | 7033 ft | 191 kts | 71° |
| 2026-05-05 07:27 | 14.52124 | 102.42170 | 7034 ft | 191 kts | 71° |
| 2026-05-05 07:27 | 14.52560 | 102.43457 | 7031 ft | 190 kts | 71° |
| 2026-05-05 07:28 | 14.52994 | 102.44744 | 7030 ft | 190 kts | 71° |
| 2026-05-05 07:28 | 14.53429 | 102.46027 | 7025 ft | 190 kts | 71° |
| 2026-05-05 07:28 | 14.53865 | 102.47314 | 7024 ft | 190 kts | 71° |
| 2026-05-05 07:28 | 14.54299 | 102.48597 | 7024 ft | 190 kts | 71° |
| 2026-05-05 07:29 | 14.54734 | 102.49884 | 7026 ft | 190 kts | 71° |
| 2026-05-05 07:29 | 14.55168 | 102.51167 | 7027 ft | 190 kts | 71° |
| 2026-05-05 07:29 | 14.55603 | 102.52452 | 7029 ft | 189 kts | 71° |
| 2026-05-05 07:29 | 14.56030 | 102.53716 | 7028 ft | 189 kts | 71° |
| 2026-05-05 07:30 | 14.56464 | 102.55000 | 7031 ft | 189 kts | 71° |
| 2026-05-05 07:30 | 14.57332 | 102.57568 | 7026 ft | 189 kts | 71° |
| 2026-05-05 07:30 | 14.57765 | 102.58849 | 7028 ft | 189 kts | 71° |
| 2026-05-05 07:31 | 14.58199 | 102.60134 | 7031 ft | 189 kts | 71° |
| 2026-05-05 07:31 | 14.58632 | 102.61417 | 7027 ft | 190 kts | 71° |
| 2026-05-05 07:31 | 14.59066 | 102.62702 | 7028 ft | 190 kts | 71° |
| 2026-05-05 07:31 | 14.59500 | 102.63988 | 7029 ft | 190 kts | 71° |
| 2026-05-05 07:32 | 14.59936 | 102.65279 | 7028 ft | 191 kts | 71° |
| 2026-05-05 07:32 | 14.60377 | 102.66581 | 7031 ft | 193 kts | 71° |
| 2026-05-05 07:32 | 14.60819 | 102.67889 | 7032 ft | 194 kts | 71° |
| 2026-05-05 07:32 | 14.61264 | 102.69205 | 7029 ft | 194 kts | 71° |
| 2026-05-05 07:33 | 14.61708 | 102.70523 | 7028 ft | 194 kts | 71° |
| 2026-05-05 07:33 | 14.62152 | 102.71840 | 7034 ft | 194 kts | 71° |
| 2026-05-05 07:33 | 14.62597 | 102.73160 | 7029 ft | 195 kts | 71° |
| 2026-05-05 07:33 | 14.63043 | 102.74480 | 7030 ft | 195 kts | 71° |
| 2026-05-05 07:34 | 14.63488 | 102.75800 | 7033 ft | 195 kts | 71° |
| 2026-05-05 07:34 | 14.63932 | 102.77121 | 7024 ft | 195 kts | 71° |
| 2026-05-05 07:34 | 14.64375 | 102.78440 | 7023 ft | 194 kts | 70° |
| 2026-05-05 07:34 | 14.64819 | 102.79758 | 7022 ft | 194 kts | 71° |
| 2026-05-05 07:35 | 14.65262 | 102.81077 | 7018 ft | 194 kts | 71° |
| 2026-05-05 07:35 | 14.65705 | 102.82392 | 7020 ft | 194 kts | 71° |
| 2026-05-05 07:35 | 14.66147 | 102.83710 | 7028 ft | 194 kts | 70° |
| 2026-05-05 07:35 | 14.66590 | 102.85026 | 7018 ft | 194 kts | 70° |
| 2026-05-05 07:36 | 14.67033 | 102.86344 | 7022 ft | 194 kts | 71° |
| 2026-05-05 07:36 | 14.67475 | 102.87659 | 7025 ft | 194 kts | 71° |
| 2026-05-05 07:36 | 14.67917 | 102.88974 | 7007 ft | 194 kts | 71° |
| 2026-05-05 07:36 | 14.68360 | 102.90293 | 7007 ft | 194 kts | 71° |
| 2026-05-05 07:37 | 14.68802 | 102.91610 | 7004 ft | 194 kts | 71° |
| 2026-05-05 07:37 | 14.69243 | 102.92925 | 7005 ft | 194 kts | 71° |
| 2026-05-05 07:37 | 14.69684 | 102.94240 | 7004 ft | 194 kts | 70° |
| 2026-05-05 07:37 | 14.70119 | 102.95538 | 7004 ft | 194 kts | 71° |
| 2026-05-05 07:38 | 14.70561 | 102.96854 | 7001 ft | 194 kts | 71° |
| 2026-05-05 07:38 | 14.71002 | 102.98168 | 7000 ft | 193 kts | 71° |
| 2026-05-05 07:38 | 14.71442 | 102.99481 | 7000 ft | 194 kts | 71° |
| 2026-05-05 07:38 | 14.71883 | 103.00797 | 6999 ft | 194 kts | 71° |
| 2026-05-05 07:39 | 14.72324 | 103.02111 | 6998 ft | 194 kts | 71° |
| 2026-05-05 07:39 | 14.72765 | 103.03426 | 6999 ft | 194 kts | 71° |
| 2026-05-05 07:39 | 14.73203 | 103.04735 | 6997 ft | 194 kts | 71° |
| 2026-05-05 07:39 | 14.73645 | 103.06054 | 6997 ft | 194 kts | 71° |
| 2026-05-05 07:40 | 14.74085 | 103.07368 | 6996 ft | 194 kts | 71° |
| 2026-05-05 07:40 | 14.74526 | 103.08684 | 6995 ft | 194 kts | 71° |
| 2026-05-05 07:40 | 14.74966 | 103.09997 | 6996 ft | 194 kts | 71° |
| 2026-05-05 07:40 | 14.75406 | 103.11313 | 6996 ft | 194 kts | 71° |
| 2026-05-05 07:41 | 14.75848 | 103.12631 | 6995 ft | 194 kts | 71° |
| 2026-05-05 07:41 | 14.76288 | 103.13950 | 6995 ft | 194 kts | 71° |
| 2026-05-05 07:41 | 14.76729 | 103.15266 | 6994 ft | 194 kts | 71° |
| 2026-05-05 07:41 | 14.77169 | 103.16583 | 6993 ft | 194 kts | 71° |
| 2026-05-05 07:42 | 14.77609 | 103.17901 | 6990 ft | 194 kts | 71° |
| 2026-05-05 07:42 | 14.78049 | 103.19215 | 6989 ft | 194 kts | 71° |
| 2026-05-05 07:42 | 14.78489 | 103.20530 | 6989 ft | 193 kts | 71° |
| 2026-05-05 07:42 | 14.78927 | 103.21843 | 6988 ft | 193 kts | 71° |
| 2026-05-05 07:43 | 14.79366 | 103.23158 | 6989 ft | 194 kts | 71° |
| 2026-05-05 07:43 | 14.79805 | 103.24471 | 6989 ft | 193 kts | 71° |
| 2026-05-05 07:43 | 14.80244 | 103.25785 | 6988 ft | 193 kts | 71° |
| 2026-05-05 07:43 | 14.80681 | 103.27097 | 6988 ft | 193 kts | 71° |
| 2026-05-05 07:44 | 14.81120 | 103.28409 | 6985 ft | 193 kts | 71° |
| 2026-05-05 07:44 | 14.81558 | 103.29723 | 6984 ft | 193 kts | 71° |
| 2026-05-05 07:44 | 14.81996 | 103.31035 | 6984 ft | 193 kts | 71° |
| 2026-05-05 07:44 | 14.82427 | 103.32329 | 6986 ft | 193 kts | 71° |
| 2026-05-05 07:45 | 14.82871 | 103.33650 | 6990 ft | 196 kts | 71° |
| 2026-05-05 07:45 | 14.83315 | 103.34984 | 6992 ft | 197 kts | 71° |
| 2026-05-05 07:45 | 14.83762 | 103.36324 | 6990 ft | 198 kts | 71° |
| 2026-05-05 07:45 | 14.84211 | 103.37670 | 6990 ft | 198 kts | 71° |
| 2026-05-05 07:46 | 14.84661 | 103.39016 | 6991 ft | 198 kts | 71° |
| 2026-05-05 07:46 | 14.85106 | 103.40358 | 6986 ft | 196 kts | 71° |
| 2026-05-05 07:46 | 14.85547 | 103.41687 | 6985 ft | 195 kts | 71° |
| 2026-05-05 07:46 | 14.85984 | 103.43005 | 6985 ft | 194 kts | 72° |
| 2026-05-05 07:47 | 14.86343 | 103.44347 | 6984 ft | 193 kts | 74° |
| 2026-05-05 07:47 | 14.86709 | 103.45686 | 6983 ft | 193 kts | 74° |
| 2026-05-05 07:47 | 14.87077 | 103.47022 | 6984 ft | 193 kts | 74° |
| 2026-05-05 07:47 | 14.87441 | 103.48357 | 6983 ft | 193 kts | 74° |
| 2026-05-05 07:48 | 14.87804 | 103.49691 | 6977 ft | 193 kts | 74° |
| 2026-05-05 07:48 | 14.88167 | 103.51026 | 6978 ft | 193 kts | 73° |
| 2026-05-05 07:48 | 14.88532 | 103.52366 | 6977 ft | 194 kts | 73° |
| 2026-05-05 07:48 | 14.88897 | 103.53704 | 6977 ft | 194 kts | 73° |
| 2026-05-05 07:49 | 14.89257 | 103.55028 | 6975 ft | 177 kts | 74° |
| 2026-05-05 07:49 | 14.89526 | 103.56092 | 6963 ft | 133 kts | 75° |
| 2026-05-05 07:49 | 14.89745 | 103.56914 | 6960 ft | 108 kts | 73° |
| 2026-05-05 07:49 | 14.89959 | 103.57666 | 6985 ft | 123 kts | 72° |
| 2026-05-05 07:50 | 14.90227 | 103.58629 | 7011 ft | 155 kts | 73° |
| 2026-05-05 07:50 | 14.90537 | 103.59783 | 7002 ft | 176 kts | 74° |
| 2026-05-05 07:50 | 14.90882 | 103.61043 | 6998 ft | 187 kts | 73° |
| 2026-05-05 07:50 | 14.91244 | 103.62348 | 6992 ft | 190 kts | 73° |
| 2026-05-05 07:51 | 14.91602 | 103.63663 | 6992 ft | 190 kts | 73° |
| 2026-05-05 07:51 | 14.91957 | 103.64975 | 6994 ft | 189 kts | 73° |
| 2026-05-05 07:51 | 14.92311 | 103.66281 | 6993 ft | 189 kts | 73° |
| 2026-05-05 07:51 | 14.92664 | 103.67589 | 6994 ft | 189 kts | 73° |
| 2026-05-05 07:52 | 14.93019 | 103.68894 | 6995 ft | 189 kts | 73° |
| 2026-05-05 07:52 | 14.93369 | 103.70184 | 6995 ft | 189 kts | 73° |
| 2026-05-05 07:52 | 14.93723 | 103.71490 | 6993 ft | 189 kts | 73° |
| 2026-05-05 07:52 | 14.94077 | 103.72797 | 6994 ft | 189 kts | 73° |
| 2026-05-05 07:53 | 14.94430 | 103.74101 | 6990 ft | 189 kts | 73° |
| 2026-05-05 07:53 | 14.94785 | 103.75411 | 6989 ft | 188 kts | 73° |
| 2026-05-05 07:53 | 14.95138 | 103.76714 | 6989 ft | 188 kts | 73° |
| 2026-05-05 07:53 | 14.95491 | 103.78017 | 6987 ft | 188 kts | 73° |
| 2026-05-05 07:54 | 14.95848 | 103.79328 | 6987 ft | 191 kts | 73° |
| 2026-05-05 07:54 | 14.96211 | 103.80663 | 6988 ft | 194 kts | 73° |
| 2026-05-05 07:54 | 14.96576 | 103.82009 | 6991 ft | 195 kts | 73° |
| 2026-05-05 07:54 | 14.96942 | 103.83364 | 6991 ft | 196 kts | 73° |
| 2026-05-05 07:55 | 14.97309 | 103.84721 | 6986 ft | 196 kts | 73° |
| 2026-05-05 07:55 | 14.97676 | 103.86082 | 6987 ft | 196 kts | 74° |
| 2026-05-05 07:55 | 14.98043 | 103.87440 | 6987 ft | 196 kts | 74° |
| 2026-05-05 07:55 | 14.98410 | 103.88799 | 6986 ft | 196 kts | 74° |
| 2026-05-05 07:56 | 14.98776 | 103.90158 | 6989 ft | 196 kts | 74° |
| 2026-05-05 07:56 | 14.99144 | 103.91518 | 6988 ft | 196 kts | 74° |
| 2026-05-05 07:56 | 14.99510 | 103.92879 | 6986 ft | 196 kts | 74° |
| 2026-05-05 07:56 | 14.99877 | 103.94239 | 6988 ft | 197 kts | 74° |
| 2026-05-05 07:57 | 15.00246 | 103.95608 | 6984 ft | 198 kts | 74° |
| 2026-05-05 07:57 | 15.00615 | 103.96974 | 6982 ft | 197 kts | 74° |
| 2026-05-05 07:57 | 15.00983 | 103.98341 | 6985 ft | 198 kts | 74° |
| 2026-05-05 07:57 | 15.01354 | 103.99715 | 6984 ft | 199 kts | 74° |
| 2026-05-05 07:58 | 15.01723 | 104.01090 | 6978 ft | 198 kts | 74° |
| 2026-05-05 07:58 | 15.02090 | 104.02454 | 6976 ft | 196 kts | 74° |
| 2026-05-05 07:58 | 15.02453 | 104.03807 | 6975 ft | 195 kts | 74° |
| 2026-05-05 07:58 | 15.02816 | 104.05155 | 6973 ft | 194 kts | 74° |
| 2026-05-05 07:59 | 15.03172 | 104.06484 | 6972 ft | 194 kts | 74° |
| 2026-05-05 07:59 | 15.03534 | 104.07830 | 6971 ft | 194 kts | 74° |
| 2026-05-05 07:59 | 15.03896 | 104.09176 | 6970 ft | 194 kts | 74° |
| 2026-05-05 07:59 | 15.04258 | 104.10521 | 6970 ft | 194 kts | 74° |
| 2026-05-05 08:00 | 15.04619 | 104.11865 | 6972 ft | 194 kts | 74° |
| 2026-05-05 08:00 | 15.04979 | 104.13209 | 6971 ft | 194 kts | 74° |
| 2026-05-05 08:00 | 15.05341 | 104.14551 | 6972 ft | 194 kts | 74° |
| 2026-05-05 08:00 | 15.05701 | 104.15892 | 6972 ft | 193 kts | 74° |
| 2026-05-05 08:01 | 15.06061 | 104.17235 | 6973 ft | 194 kts | 74° |
| 2026-05-05 08:01 | 15.06421 | 104.18577 | 6972 ft | 194 kts | 74° |
| 2026-05-05 08:01 | 15.06782 | 104.19922 | 6970 ft | 194 kts | 74° |
| 2026-05-05 08:01 | 15.07143 | 104.21268 | 6970 ft | 194 kts | 74° |
| 2026-05-05 08:02 | 15.07504 | 104.22609 | 6966 ft | 193 kts | 75° |
| 2026-05-05 08:02 | 15.07862 | 104.23948 | 6966 ft | 193 kts | 75° |
| 2026-05-05 08:02 | 15.08221 | 104.25289 | 6966 ft | 193 kts | 75° |
| 2026-05-05 08:02 | 15.08581 | 104.26632 | 6970 ft | 195 kts | 75° |
| 2026-05-05 08:03 | 15.08947 | 104.27989 | 6970 ft | 197 kts | 75° |
| 2026-05-05 08:03 | 15.09312 | 104.29349 | 6966 ft | 196 kts | 75° |
| 2026-05-05 08:03 | 15.09676 | 104.30704 | 6965 ft | 195 kts | 75° |
| 2026-05-05 08:03 | 15.10035 | 104.32047 | 6967 ft | 191 kts | 75° |
| 2026-05-05 08:04 | 15.10375 | 104.33341 | 6882 ft | 184 kts | 76° |
| 2026-05-05 08:04 | 15.10707 | 104.34609 | 6763 ft | 182 kts | 75° |
| 2026-05-05 08:04 | 15.11043 | 104.35870 | 6641 ft | 182 kts | 75° |
| 2026-05-05 08:04 | 15.11326 | 104.37139 | 6514 ft | 181 kts | 84° |
| 2026-05-05 08:05 | 15.11420 | 104.38433 | 6399 ft | 180 kts | 86° |
| 2026-05-05 08:05 | 15.11519 | 104.39724 | 6274 ft | 178 kts | 86° |
| 2026-05-05 08:05 | 15.11623 | 104.40990 | 6149 ft | 175 kts | 85° |
| 2026-05-05 08:05 | 15.11727 | 104.42239 | 6023 ft | 174 kts | 85° |
| 2026-05-05 08:06 | 15.11831 | 104.43487 | 5892 ft | 174 kts | 85° |
| 2026-05-05 08:06 | 15.11934 | 104.44735 | 5776 ft | 174 kts | 86° |
| 2026-05-05 08:06 | 15.12039 | 104.45990 | 5656 ft | 178 kts | 85° |
| 2026-05-05 08:06 | 15.12156 | 104.47298 | 5540 ft | 187 kts | 85° |
| 2026-05-05 08:07 | 15.12275 | 104.48657 | 5426 ft | 191 kts | 85° |
| 2026-05-05 08:07 | 15.12352 | 104.49567 | 5349 ft | 192 kts | 85° |
| 2026-05-05 08:07 | 15.12504 | 104.51399 | 5173 ft | 194 kts | 86° |
| 2026-05-05 08:07 | 15.12619 | 104.52793 | 5032 ft | 195 kts | 85° |
| 2026-05-05 08:08 | 15.12733 | 104.54194 | 4886 ft | 196 kts | 86° |
| 2026-05-05 08:08 | 15.12827 | 104.55599 | 4748 ft | 196 kts | 86° |
| 2026-05-05 08:08 | 15.12887 | 104.56550 | 4651 ft | 196 kts | 86° |
| 2026-05-05 08:08 | 15.12979 | 104.57934 | 4507 ft | 195 kts | 86° |
| 2026-05-05 08:09 | 15.13075 | 104.59334 | 4361 ft | 195 kts | 86° |
| 2026-05-05 08:09 | 15.13168 | 104.60734 | 4215 ft | 195 kts | 86° |
| 2026-05-05 08:09 | 15.13263 | 104.62131 | 4068 ft | 195 kts | 86° |
| 2026-05-05 08:09 | 15.13358 | 104.63532 | 3923 ft | 195 kts | 86° |
| 2026-05-05 08:10 | 15.13451 | 104.64929 | 3773 ft | 195 kts | 86° |
| 2026-05-05 08:10 | 15.13546 | 104.66329 | 3630 ft | 195 kts | 85° |
| 2026-05-05 08:10 | 15.13641 | 104.67730 | 3486 ft | 195 kts | 85° |
| 2026-05-05 08:10 | 15.13731 | 104.69116 | 3342 ft | 189 kts | 86° |
| 2026-05-05 08:11 | 15.13816 | 104.70449 | 3169 ft | 185 kts | 85° |
| 2026-05-05 08:11 | 15.13909 | 104.71777 | 2933 ft | 185 kts | 83° |
| 2026-05-05 08:11 | 15.14350 | 104.73034 | 2692 ft | 190 kts | 56° |
| 2026-05-05 08:11 | 15.15182 | 104.74110 | 2436 ft | 193 kts | 49° |
| 2026-05-05 08:12 | 15.16020 | 104.75176 | 2197 ft | 188 kts | 51° |
| 2026-05-05 08:12 | 15.16828 | 104.76229 | 1954 ft | 186 kts | 51° |
| 2026-05-05 08:12 | 15.17630 | 104.77272 | 1712 ft | 184 kts | 51° |
| 2026-05-05 08:12 | 15.18422 | 104.78305 | 1559 ft | 180 kts | 50° |
| 2026-05-05 08:13 | 15.19199 | 104.79287 | 1512 ft | 174 kts | 51° |
| 2026-05-05 08:13 | 15.19898 | 104.80252 | 1503 ft | 157 kts | 54° |
| 2026-05-05 08:13 | 15.20525 | 104.81118 | 1453 ft | 145 kts | 51° |
| 2026-05-05 08:13 | 15.21140 | 104.81903 | 1402 ft | 136 kts | 50° |
| 2026-05-05 08:14 | 15.21735 | 104.82651 | 1248 ft | 134 kts | 51° |
| 2026-05-05 08:14 | 15.22305 | 104.83402 | 1091 ft | 128 kts | 50° |
| 2026-05-05 08:14 | 15.22801 | 104.84034 | 970 ft | 92 kts | 50° |
| 2026-05-05 08:14 | 15.23155 | 104.84489 | 843 ft | 76 kts | 49° |
| 2026-05-05 08:15 | 15.23485 | 104.84914 | 708 ft | 75 kts | 49° |
| 2026-05-05 08:15 | 15.23818 | 104.85338 | 605 ft | 79 kts | 49° |
| 2026-05-05 08:15 | 15.24157 | 104.85781 | 489 ft | 78 kts | 47° |
| 2026-05-05 08:15 | 15.24485 | 104.86204 | 409 ft | 68 kts | 49° |
| 2026-05-05 08:16 | 15.24744 | 104.86539 | 410 ft | 53 kts | 51° |
| 2026-05-05 08:16 | 15.24905 | 104.86694 | 406 ft | 14 kts | 324° |
| 2026-05-05 08:16 | 15.25008 | 104.86611 | 405 ft | 20 kts | 322° |
| 2026-05-05 08:16 | 15.25058 | 104.86568 | 405 ft | 5 kts | 302° |
| 2026-05-05 08:17 | 15.25066 | 104.86522 | 405 ft | 6 kts | 271° |
| 2026-05-05 08:17 | 15.25036 | 104.86430 | 405 ft | 17 kts | 233° |
| 2026-05-05 08:17 | 15.24975 | 104.86347 | 405 ft | 9 kts | 234° |
| 2026-05-05 08:17 | 15.24922 | 104.86299 | 405 ft | 17 kts | 201° |
| 2026-05-05 08:18 | 15.24934 | 104.86280 | 405 ft | 8 kts | 53° |
| 2026-05-05 08:18 | 15.24947 | 104.86298 | 405 ft | 0 kts | 52° |